sensor_id;sensor_type;location;lat;lon;timestamp;pressure;altitude;pressure_sealevel;temperature;humidity
11648;BME280;5880;52.342;9.662;2024-03-07T00:02:19;102075.31;;;8.73;48.22
11648;BME280;5880;52.342;9.662;2024-03-07T00:04:45;102083.88;;;8.70;48.28
11648;BME280;5880;52.342;9.662;2024-03-07T00:07:11;102077.94;;;8.66;48.25
11648;BME280;5880;52.342;9.662;2024-03-07T00:09:37;102078.31;;;8.63;48.48
11648;BME280;5880;52.342;9.662;2024-03-07T00:12:03;102076.81;;;8.60;48.25
11648;BME280;5880;52.342;9.662;2024-03-07T00:14:31;102074.47;;;8.57;48.39
11648;BME280;5880;52.342;9.662;2024-03-07T00:16:57;102072.09;;;8.54;48.35
11648;BME280;5880;52.342;9.662;2024-03-07T00:19:25;102081.47;;;8.52;48.25
11648;BME280;5880;52.342;9.662;2024-03-07T00:21:56;102076.41;;;8.49;48.51
11648;BME280;5880;52.342;9.662;2024-03-07T00:24:22;102075.06;;;8.44;48.45
11648;BME280;5880;52.342;9.662;2024-03-07T00:26:48;102078.16;;;8.41;48.01
11648;BME280;5880;52.342;9.662;2024-03-07T00:29:17;102067.63;;;8.38;48.61
11648;BME280;5880;52.342;9.662;2024-03-07T00:31:45;102071.56;;;8.36;48.34
11648;BME280;5880;52.342;9.662;2024-03-07T00:34:14;102065.44;;;8.34;48.48
11648;BME280;5880;52.342;9.662;2024-03-07T00:36:45;102070.22;;;8.32;48.21
11648;BME280;5880;52.342;9.662;2024-03-07T00:39:12;102068.88;;;8.28;48.57
11648;BME280;5880;52.342;9.662;2024-03-07T00:41:41;102067.38;;;8.25;48.18
11648;BME280;5880;52.342;9.662;2024-03-07T00:44:08;102052.78;;;8.18;47.97
11648;BME280;5880;52.342;9.662;2024-03-07T00:46:37;102056.34;;;8.18;48.23
11648;BME280;5880;52.342;9.662;2024-03-07T00:49:04;102051.28;;;8.15;48.26
11648;BME280;5880;52.342;9.662;2024-03-07T00:51:30;102057.94;;;8.13;48.26
11648;BME280;5880;52.342;9.662;2024-03-07T00:53:56;102052.34;;;8.06;48.53
11648;BME280;5880;52.342;9.662;2024-03-07T00:56:23;102054.88;;;8.08;48.17
11648;BME280;5880;52.342;9.662;2024-03-07T00:58:50;102058.81;;;8.05;48.65
11648;BME280;5880;52.342;9.662;2024-03-07T01:01:17;102052.72;;;8.03;48.02
11648;BME280;5880;52.342;9.662;2024-03-07T01:03:44;102052.22;;;7.99;48.34
11648;BME280;5880;52.342;9.662;2024-03-07T01:06:10;102048.84;;;7.97;48.09
11648;BME280;5880;52.342;9.662;2024-03-07T01:08:37;102049.88;;;7.96;48.38
11648;BME280;5880;52.342;9.662;2024-03-07T01:11:04;102033.56;;;7.88;48.58
11648;BME280;5880;52.342;9.662;2024-03-07T01:13:36;102040.53;;;7.91;48.33
11648;BME280;5880;52.342;9.662;2024-03-07T01:16:02;102046.50;;;7.86;48.18
11648;BME280;5880;52.342;9.662;2024-03-07T01:18:28;102054.00;;;7.84;48.58
11648;BME280;5880;52.342;9.662;2024-03-07T01:20:53;102062.19;;;7.84;48.53
11648;BME280;5880;52.342;9.662;2024-03-07T01:23:20;102060.66;;;7.81;48.68
11648;BME280;5880;52.342;9.662;2024-03-07T01:25:46;102064.59;;;7.79;48.51
11648;BME280;5880;52.342;9.662;2024-03-07T01:28:11;102056.97;;;7.74;48.26
11648;BME280;5880;52.342;9.662;2024-03-07T01:30:39;102055.09;;;7.75;48.30
11648;BME280;5880;52.342;9.662;2024-03-07T01:33:04;102052.72;;;7.72;48.31
11648;BME280;5880;52.342;9.662;2024-03-07T01:35:30;102053.94;;;7.69;48.17
11648;BME280;5880;52.342;9.662;2024-03-07T01:37:56;102049.69;;;7.67;48.37
11648;BME280;5880;52.342;9.662;2024-03-07T01:40:22;102050.91;;;7.64;48.63
11648;BME280;5880;52.342;9.662;2024-03-07T01:42:51;102043.09;;;7.61;48.29
11648;BME280;5880;52.342;9.662;2024-03-07T01:45:17;102044.13;;;7.60;48.74
11648;BME280;5880;52.342;9.662;2024-03-07T01:47:44;102045.50;;;7.56;48.53
11648;BME280;5880;52.342;9.662;2024-03-07T01:50:10;102050.28;;;7.54;48.11
11648;BME280;5880;52.342;9.662;2024-03-07T01:52:40;102045.19;;;7.51;48.63
11648;BME280;5880;52.342;9.662;2024-03-07T01:55:07;102049.28;;;7.47;48.23
11648;BME280;5880;52.342;9.662;2024-03-07T01:57:35;102051.69;;;7.42;48.25
11648;BME280;5880;52.342;9.662;2024-03-07T02:00:01;102051.00;;;7.39;48.40
11648;BME280;5880;52.342;9.662;2024-03-07T02:02:30;102053.41;;;7.34;48.25
11648;BME280;5880;52.342;9.662;2024-03-07T02:04:56;102048.19;;;7.33;48.42
11648;BME280;5880;52.342;9.662;2024-03-07T02:07:21;102041.53;;;7.27;48.47
11648;BME280;5880;52.342;9.662;2024-03-07T02:09:47;102048.69;;;7.28;48.28
11648;BME280;5880;52.342;9.662;2024-03-07T02:12:13;102042.59;;;7.26;48.97
11648;BME280;5880;52.342;9.662;2024-03-07T02:14:38;102037.66;;;7.22;48.71
11648;BME280;5880;52.342;9.662;2024-03-07T02:17:04;102042.06;;;7.23;48.07
11648;BME280;5880;52.342;9.662;2024-03-07T02:19:29;102040.56;;;7.20;47.96
11648;BME280;5880;52.342;9.662;2024-03-07T02:21:57;102042.97;;;7.15;48.60
11648;BME280;5880;52.342;9.662;2024-03-07T02:24:24;102038.88;;;7.11;47.71
11648;BME280;5880;52.342;9.662;2024-03-07T02:26:50;102036.31;;;7.09;48.72
11648;BME280;5880;52.342;9.662;2024-03-07T02:29:15;102028.53;;;7.06;48.72
11648;BME280;5880;52.342;9.662;2024-03-07T02:31:41;102036.00;;;7.04;48.14
11648;BME280;5880;52.342;9.662;2024-03-07T02:34:07;102031.63;;;7.03;48.41
11648;BME280;5880;52.342;9.662;2024-03-07T02:36:33;102030.94;;;7.01;47.88
11648;BME280;5880;52.342;9.662;2024-03-07T02:39:00;102027.53;;;6.99;47.92
11648;BME280;5880;52.342;9.662;2024-03-07T02:41:26;102033.34;;;6.96;48.48
11648;BME280;5880;52.342;9.662;2024-03-07T02:43:52;102029.09;;;6.93;48.78
11648;BME280;5880;52.342;9.662;2024-03-07T02:46:19;102026.53;;;6.92;48.13
11648;BME280;5880;52.342;9.662;2024-03-07T02:48:45;102012.47;;;6.88;48.55
11648;BME280;5880;52.342;9.662;2024-03-07T02:51:11;102025.03;;;6.89;48.61
11648;BME280;5880;52.342;9.662;2024-03-07T02:53:37;102025.19;;;6.88;48.59
11648;BME280;5880;52.342;9.662;2024-03-07T02:56:04;102027.22;;;6.86;48.57
11648;BME280;5880;52.342;9.662;2024-03-07T02:58:33;102020.09;;;6.85;48.86
11648;BME280;5880;52.342;9.662;2024-03-07T03:01:00;102017.56;;;6.83;48.83
11648;BME280;5880;52.342;9.662;2024-03-07T03:03:26;102018.41;;;6.84;48.91
11648;BME280;5880;52.342;9.662;2024-03-07T03:05:52;102016.72;;;6.83;48.71
11648;BME280;5880;52.342;9.662;2024-03-07T03:08:18;102017.75;;;6.82;48.78
11648;BME280;5880;52.342;9.662;2024-03-07T03:10:44;102013.16;;;6.82;48.97
11648;BME280;5880;52.342;9.662;2024-03-07T03:13:10;102013.31;;;6.81;48.85
11648;BME280;5880;52.342;9.662;2024-03-07T03:15:36;102014.16;;;6.81;48.86
11648;BME280;5880;52.342;9.662;2024-03-07T03:18:04;102013.50;;;6.79;48.79
11648;BME280;5880;52.342;9.662;2024-03-07T03:20:31;102009.06;;;6.78;48.52
11648;BME280;5880;52.342;9.662;2024-03-07T03:23:01;102011.13;;;6.76;48.93
11648;BME280;5880;52.342;9.662;2024-03-07T03:25:28;102007.56;;;6.75;48.72
11648;BME280;5880;52.342;9.662;2024-03-07T03:27:54;102006.72;;;6.75;49.01
11648;BME280;5880;52.342;9.662;2024-03-07T03:30:20;102004.00;;;6.75;49.26
11648;BME280;5880;52.342;9.662;2024-03-07T03:32:47;102009.44;;;6.75;48.73
11648;BME280;5880;52.342;9.662;2024-03-07T03:35:14;102003.16;;;6.74;49.33
11648;BME280;5880;52.342;9.662;2024-03-07T03:37:42;102008.41;;;6.76;49.02
11648;BME280;5880;52.342;9.662;2024-03-07T03:40:09;102000.06;;;6.78;49.34
11648;BME280;5880;52.342;9.662;2024-03-07T03:42:40;102008.72;;;6.81;49.74
11648;BME280;5880;52.342;9.662;2024-03-07T03:45:07;102006.69;;;6.83;49.18
11648;BME280;5880;52.342;9.662;2024-03-07T03:47:38;102008.19;;;6.86;49.30
11648;BME280;5880;52.342;9.662;2024-03-07T03:50:09;101998.88;;;6.88;49.54
11648;BME280;5880;52.342;9.662;2024-03-07T03:52:34;102002.44;;;6.89;49.53
11648;BME280;5880;52.342;9.662;2024-03-07T03:55:04;102006.66;;;6.91;49.27
11648;BME280;5880;52.342;9.662;2024-03-07T03:57:32;101997.16;;;6.95;50.22
11648;BME280;5880;52.342;9.662;2024-03-07T03:59:59;102000.50;;;6.97;49.52
11648;BME280;5880;52.342;9.662;2024-03-07T04:02:25;101998.47;;;7.00;49.86
11648;BME280;5880;52.342;9.662;2024-03-07T04:04:52;101992.72;;;7.03;49.47
11648;BME280;5880;52.342;9.662;2024-03-07T04:07:19;101991.50;;;7.05;49.56
11648;BME280;5880;52.342;9.662;2024-03-07T04:09:45;101995.53;;;7.09;49.94
11648;BME280;5880;52.342;9.662;2024-03-07T04:12:12;101994.53;;;7.10;50.15
11648;BME280;5880;52.342;9.662;2024-03-07T04:14:40;101987.91;;;7.13;50.39
11648;BME280;5880;52.342;9.662;2024-03-07T04:17:07;101994.00;;;7.15;50.09
11648;BME280;5880;52.342;9.662;2024-03-07T04:19:35;101996.56;;;7.16;49.91
11648;BME280;5880;52.342;9.662;2024-03-07T04:22:01;101989.72;;;7.21;50.20
11648;BME280;5880;52.342;9.662;2024-03-07T04:24:32;101989.56;;;7.22;50.24
11648;BME280;5880;52.342;9.662;2024-03-07T04:27:01;101989.19;;;7.25;50.05
11648;BME280;5880;52.342;9.662;2024-03-07T04:29:33;101985.28;;;7.28;50.12
11648;BME280;5880;52.342;9.662;2024-03-07T04:32:01;101994.94;;;7.30;50.52
11648;BME280;5880;52.342;9.662;2024-03-07T04:34:27;101986.44;;;7.33;50.45
11648;BME280;5880;52.342;9.662;2024-03-07T04:37:00;101981.19;;;7.32;50.47
11648;BME280;5880;52.342;9.662;2024-03-07T04:39:29;101977.44;;;7.33;50.43
11648;BME280;5880;52.342;9.662;2024-03-07T04:44:26;101982.00;;;7.40;50.04
11648;BME280;5880;52.342;9.662;2024-03-07T04:46:51;101992.69;;;7.42;50.34
11648;BME280;5880;52.342;9.662;2024-03-07T04:49:25;101989.63;;;7.45;50.65
11648;BME280;5880;52.342;9.662;2024-03-07T04:51:52;101988.56;;;7.46;50.71
11648;BME280;5880;52.342;9.662;2024-03-07T04:54:22;101990.28;;;7.47;50.79
11648;BME280;5880;52.342;9.662;2024-03-07T04:56:49;101982.13;;;7.47;50.75
11648;BME280;5880;52.342;9.662;2024-03-07T04:59:17;101990.97;;;7.49;50.96
11648;BME280;5880;52.342;9.662;2024-03-07T05:01:44;101984.47;;;7.50;50.64
11648;BME280;5880;52.342;9.662;2024-03-07T05:04:12;101985.81;;;7.54;50.60
11648;BME280;5880;52.342;9.662;2024-03-07T05:06:39;101997.38;;;7.56;51.13
11648;BME280;5880;52.342;9.662;2024-03-07T05:09:06;101997.84;;;7.60;51.11
11648;BME280;5880;52.342;9.662;2024-03-07T05:11:35;101999.38;;;7.63;51.06
11648;BME280;5880;52.342;9.662;2024-03-07T05:14:01;101998.16;;;7.65;51.31
11648;BME280;5880;52.342;9.662;2024-03-07T05:16:29;102005.13;;;7.68;51.24
11648;BME280;5880;52.342;9.662;2024-03-07T05:18:55;101995.28;;;7.67;51.19
11648;BME280;5880;52.342;9.662;2024-03-07T05:21:27;102001.50;;;7.75;51.23
11648;BME280;5880;52.342;9.662;2024-03-07T05:24:03;101994.03;;;7.77;51.22
11648;BME280;5880;52.342;9.662;2024-03-07T05:26:29;102002.00;;;7.79;51.39
11648;BME280;5880;52.342;9.662;2024-03-07T05:29:07;101986.69;;;7.78;51.49
11648;BME280;5880;52.342;9.662;2024-03-07T05:31:39;101998.56;;;7.85;51.18
11648;BME280;5880;52.342;9.662;2024-03-07T05:34:16;102004.84;;;7.86;50.95
11648;BME280;5880;52.342;9.662;2024-03-07T05:36:46;102007.19;;;7.89;51.47
11648;BME280;5880;52.342;9.662;2024-03-07T05:39:13;102003.25;;;7.91;51.58
11648;BME280;5880;52.342;9.662;2024-03-07T05:41:41;102000.38;;;7.93;51.55
11648;BME280;5880;52.342;9.662;2024-03-07T05:44:07;102004.78;;;7.94;51.60
11648;BME280;5880;52.342;9.662;2024-03-07T05:46:38;102006.97;;;7.98;51.63
11648;BME280;5880;52.342;9.662;2024-03-07T05:49:08;101997.25;;;7.96;51.34
11648;BME280;5880;52.342;9.662;2024-03-07T05:51:34;102002.38;;;7.99;51.61
11648;BME280;5880;52.342;9.662;2024-03-07T05:54:00;102000.31;;;8.01;51.70
11648;BME280;5880;52.342;9.662;2024-03-07T05:56:25;102004.19;;;8.07;51.41
11648;BME280;5880;52.342;9.662;2024-03-07T05:58:51;102004.84;;;8.09;51.46
11648;BME280;5880;52.342;9.662;2024-03-07T06:01:17;102005.50;;;8.11;51.83
11648;BME280;5880;52.342;9.662;2024-03-07T06:03:44;102004.28;;;8.13;51.52
11648;BME280;5880;52.342;9.662;2024-03-07T06:06:11;102005.97;;;8.14;51.71
11648;BME280;5880;52.342;9.662;2024-03-07T06:08:37;102009.38;;;8.16;51.75
11648;BME280;5880;52.342;9.662;2024-03-07T06:11:05;102005.63;;;8.17;51.37
11648;BME280;5880;52.342;9.662;2024-03-07T06:13:31;102008.16;;;8.19;52.00
11648;BME280;5880;52.342;9.662;2024-03-07T06:15:57;102008.81;;;8.21;51.63
11648;BME280;5880;52.342;9.662;2024-03-07T06:18:22;102009.66;;;8.21;51.57
11648;BME280;5880;52.342;9.662;2024-03-07T06:20:48;102006.09;;;8.21;51.77
11648;BME280;5880;52.342;9.662;2024-03-07T06:23:14;102014.75;;;8.24;51.47
11648;BME280;5880;52.342;9.662;2024-03-07T06:25:42;102009.50;;;8.23;51.93
11648;BME280;5880;52.342;9.662;2024-03-07T06:28:17;102015.44;;;8.27;51.77
11648;BME280;5880;52.342;9.662;2024-03-07T06:30:45;102014.38;;;8.28;52.11
11648;BME280;5880;52.342;9.662;2024-03-07T06:33:11;102016.28;;;8.27;52.17
11648;BME280;5880;52.342;9.662;2024-03-07T06:35:39;102024.06;;;8.30;51.88
11648;BME280;5880;52.342;9.662;2024-03-07T06:38:06;102022.19;;;8.31;52.13
11648;BME280;5880;52.342;9.662;2024-03-07T06:40:37;102031.03;;;8.33;52.35
11648;BME280;5880;52.342;9.662;2024-03-07T06:43:03;102016.19;;;8.35;52.07
11648;BME280;5880;52.342;9.662;2024-03-07T06:45:30;102024.19;;;8.37;52.21
11648;BME280;5880;52.342;9.662;2024-03-07T06:47:56;102018.06;;;8.35;52.20
11648;BME280;5880;52.342;9.662;2024-03-07T06:50:22;102021.13;;;8.40;52.33
11648;BME280;5880;52.342;9.662;2024-03-07T06:52:49;102020.78;;;8.43;52.52
11648;BME280;5880;52.342;9.662;2024-03-07T06:55:18;102022.28;;;8.45;52.33
11648;BME280;5880;52.342;9.662;2024-03-07T06:57:47;102016.16;;;8.43;52.66
11648;BME280;5880;52.342;9.662;2024-03-07T07:00:15;102025.47;;;8.49;52.59
11648;BME280;5880;52.342;9.662;2024-03-07T07:02:48;102031.75;;;8.50;52.59
11648;BME280;5880;52.342;9.662;2024-03-07T07:05:14;102025.13;;;8.52;52.41
11648;BME280;5880;52.342;9.662;2024-03-07T07:07:49;102023.91;;;8.55;52.36
11648;BME280;5880;52.342;9.662;2024-03-07T07:10:15;102022.84;;;8.56;52.48
11648;BME280;5880;52.342;9.662;2024-03-07T07:12:47;102032.72;;;8.57;52.74
11648;BME280;5880;52.342;9.662;2024-03-07T07:15:18;102028.13;;;8.57;52.53
11648;BME280;5880;52.342;9.662;2024-03-07T07:17:44;102025.41;;;8.57;52.60
11648;BME280;5880;52.342;9.662;2024-03-07T07:20:13;102026.25;;;8.58;52.64
11648;BME280;5880;52.342;9.662;2024-03-07T07:22:42;102026.06;;;8.59;52.50
11648;BME280;5880;52.342;9.662;2024-03-07T07:25:08;102034.72;;;8.63;52.57
11648;BME280;5880;52.342;9.662;2024-03-07T07:27:48;102030.09;;;8.63;52.74
11648;BME280;5880;52.342;9.662;2024-03-07T07:30:16;102027.19;;;8.65;52.73
11648;BME280;5880;52.342;9.662;2024-03-07T07:32:43;102025.13;;;8.67;52.70
11648;BME280;5880;52.342;9.662;2024-03-07T07:35:11;102028.53;;;8.69;52.71
11648;BME280;5880;52.342;9.662;2024-03-07T07:37:45;102018.63;;;8.68;52.95
11648;BME280;5880;52.342;9.662;2024-03-07T07:40:14;102021.66;;;8.73;52.88
11648;BME280;5880;52.342;9.662;2024-03-07T07:42:41;102020.81;;;8.73;52.90
11648;BME280;5880;52.342;9.662;2024-03-07T07:45:09;102024.19;;;8.75;52.82
11648;BME280;5880;52.342;9.662;2024-03-07T07:47:49;102016.69;;;8.77;53.15
11648;BME280;5880;52.342;9.662;2024-03-07T07:50:18;102019.41;;;8.77;53.07
11648;BME280;5880;52.342;9.662;2024-03-07T07:52:48;102005.78;;;8.77;53.00
11648;BME280;5880;52.342;9.662;2024-03-07T07:55:26;102011.72;;;8.80;53.01
11648;BME280;5880;52.342;9.662;2024-03-07T07:58:01;102014.25;;;8.82;53.04
11648;BME280;5880;52.342;9.662;2024-03-07T08:00:29;102013.22;;;8.83;53.25
11648;BME280;5880;52.342;9.662;2024-03-07T08:03:02;102014.72;;;8.85;53.18
11648;BME280;5880;52.342;9.662;2024-03-07T08:05:38;102007.22;;;8.87;53.08
11648;BME280;5880;52.342;9.662;2024-03-07T08:08:07;102004.66;;;8.86;53.34
11648;BME280;5880;52.342;9.662;2024-03-07T08:10:36;102005.78;;;8.92;53.10
11648;BME280;5880;52.342;9.662;2024-03-07T08:13:03;102011.72;;;8.95;53.51
11648;BME280;5880;52.342;9.662;2024-03-07T08:15:31;102003.34;;;8.97;53.34
11648;BME280;5880;52.342;9.662;2024-03-07T08:17:59;102012.00;;;9.00;53.38
11648;BME280;5880;52.342;9.662;2024-03-07T08:20:26;102008.03;;;9.03;53.61
11648;BME280;5880;52.342;9.662;2024-03-07T08:22:54;102004.91;;;9.06;53.33
11648;BME280;5880;52.342;9.662;2024-03-07T08:25:25;102006.47;;;9.08;53.50
11648;BME280;5880;52.342;9.662;2024-03-07T08:27:53;101999.94;;;9.09;53.92
11648;BME280;5880;52.342;9.662;2024-03-07T08:30:20;102012.19;;;9.14;53.29
11648;BME280;5880;52.342;9.662;2024-03-07T08:32:53;102003.78;;;9.15;53.79
11648;BME280;5880;52.342;9.662;2024-03-07T08:35:19;101994.97;;;9.13;53.63
11648;BME280;5880;52.342;9.662;2024-03-07T08:37:47;101998.63;;;9.20;53.75
11648;BME280;5880;52.342;9.662;2024-03-07T08:40:20;101996.53;;;9.22;53.80
11648;BME280;5880;52.342;9.662;2024-03-07T08:42:49;102001.81;;;9.24;53.85
11648;BME280;5880;52.342;9.662;2024-03-07T08:45:20;102002.28;;;9.27;53.84
11648;BME280;5880;52.342;9.662;2024-03-07T08:47:48;101990.50;;;9.27;54.07
11648;BME280;5880;52.342;9.662;2024-03-07T08:50:14;101995.34;;;9.25;54.32
11648;BME280;5880;52.342;9.662;2024-03-07T08:52:41;101997.75;;;9.20;54.92
11648;BME280;5880;52.342;9.662;2024-03-07T08:55:09;101989.31;;;9.15;55.11
11648;BME280;5880;52.342;9.662;2024-03-07T08:57:40;102000.50;;;9.20;55.17
11648;BME280;5880;52.342;9.662;2024-03-07T09:00:08;101996.53;;;9.22;55.24
11648;BME280;5880;52.342;9.662;2024-03-07T09:02:39;101994.28;;;9.26;55.43
11648;BME280;5880;52.342;9.662;2024-03-07T09:05:06;101984.59;;;9.23;55.65
11648;BME280;5880;52.342;9.662;2024-03-07T09:07:32;101992.88;;;9.30;55.66
11648;BME280;5880;52.342;9.662;2024-03-07T09:09:58;101990.59;;;9.34;55.71
11648;BME280;5880;52.342;9.662;2024-03-07T09:12:24;101991.25;;;9.36;55.84
11648;BME280;5880;52.342;9.662;2024-03-07T09:14:53;101994.66;;;9.38;55.85
11648;BME280;5880;52.342;9.662;2024-03-07T09:17:20;101993.41;;;9.40;55.89
11648;BME280;5880;52.342;9.662;2024-03-07T09:19:46;101992.56;;;9.40;56.22
11648;BME280;5880;52.342;9.662;2024-03-07T09:22:11;101992.41;;;9.41;56.13
11648;BME280;5880;52.342;9.662;2024-03-07T09:24:37;101978.94;;;9.40;56.33
11648;BME280;5880;52.342;9.662;2024-03-07T09:27:05;101982.75;;;9.45;56.37
11648;BME280;5880;52.342;9.662;2024-03-07T09:29:31;101983.81;;;9.44;56.30
11648;BME280;5880;52.342;9.662;2024-03-07T09:31:56;101975.50;;;9.52;56.47
11648;BME280;5880;52.342;9.662;2024-03-07T09:34:25;101969.28;;;9.59;56.66
11648;BME280;5880;52.342;9.662;2024-03-07T09:36:51;101972.94;;;9.66;56.43
11648;BME280;5880;52.342;9.662;2024-03-07T09:39:18;101974.03;;;9.71;56.33
11648;BME280;5880;52.342;9.662;2024-03-07T09:41:46;101982.69;;;9.75;56.42
11648;BME280;5880;52.342;9.662;2024-03-07T09:44:18;101977.69;;;9.79;56.39
11648;BME280;5880;52.342;9.662;2024-03-07T09:46:54;101972.25;;;9.79;56.33
11648;BME280;5880;52.342;9.662;2024-03-07T09:49:20;101982.75;;;9.82;56.25
11648;BME280;5880;52.342;9.662;2024-03-07T09:51:49;101980.47;;;9.85;56.38
11648;BME280;5880;52.342;9.662;2024-03-07T09:54:23;101980.09;;;9.88;56.27
11648;BME280;5880;52.342;9.662;2024-03-07T09:56:54;101978.41;;;9.87;56.20
11648;BME280;5880;52.342;9.662;2024-03-07T09:59:24;101979.31;;;9.94;56.32
11648;BME280;5880;52.342;9.662;2024-03-07T10:01:57;101981.84;;;9.96;56.22
11648;BME280;5880;52.342;9.662;2024-03-07T10:04:38;101983.81;;;10.02;56.02
11648;BME280;5880;52.342;9.662;2024-03-07T10:07:07;101982.75;;;10.03;56.01
11648;BME280;5880;52.342;9.662;2024-03-07T10:09:37;101981.53;;;10.06;56.25
11648;BME280;5880;52.342;9.662;2024-03-07T10:12:03;101975.63;;;10.02;56.07
11648;BME280;5880;52.342;9.662;2024-03-07T10:14:32;101984.06;;;10.07;56.33
11648;BME280;5880;52.342;9.662;2024-03-07T10:16:58;101977.94;;;10.05;56.19
11648;BME280;5880;52.342;9.662;2024-03-07T10:19:24;101979.44;;;10.08;56.06
11648;BME280;5880;52.342;9.662;2024-03-07T10:21:50;101974.38;;;10.05;56.44
11648;BME280;5880;52.342;9.662;2024-03-07T10:24:17;101976.72;;;10.08;56.14
11648;BME280;5880;52.342;9.662;2024-03-07T10:26:43;101970.41;;;10.07;56.28
11648;BME280;5880;52.342;9.662;2024-03-07T10:29:09;101976.72;;;10.08;56.17
11648;BME280;5880;52.342;9.662;2024-03-07T10:31:35;101976.72;;;10.08;56.36
11648;BME280;5880;52.342;9.662;2024-03-07T10:34:03;101977.34;;;10.10;56.29
11648;BME280;5880;52.342;9.662;2024-03-07T10:36:33;101980.53;;;10.13;56.18
11648;BME280;5880;52.342;9.662;2024-03-07T10:39:00;101976.13;;;10.12;56.39
11648;BME280;5880;52.342;9.662;2024-03-07T10:41:28;101972.56;;;10.12;56.32
11648;BME280;5880;52.342;9.662;2024-03-07T10:43:57;101976.97;;;10.13;56.44
11648;BME280;5880;52.342;9.662;2024-03-07T10:46:26;101973.38;;;10.12;56.32
11648;BME280;5880;52.342;9.662;2024-03-07T10:48:59;101964.59;;;10.17;56.40
11648;BME280;5880;52.342;9.662;2024-03-07T10:51:40;101966.28;;;10.18;56.60
11648;BME280;5880;52.342;9.662;2024-03-07T10:54:48;101962.53;;;10.19;56.44
11648;BME280;5880;52.342;9.662;2024-03-07T10:57:23;101965.69;;;10.23;56.25
11648;BME280;5880;52.342;9.662;2024-03-07T11:00:00;101965.31;;;10.26;56.23
11648;BME280;5880;52.342;9.662;2024-03-07T11:02:46;101958.41;;;10.30;56.38
11648;BME280;5880;52.342;9.662;2024-03-07T11:05:14;101961.44;;;10.35;56.39
11648;BME280;5880;52.342;9.662;2024-03-07T11:07:41;101962.31;;;10.42;56.30
11648;BME280;5880;52.342;9.662;2024-03-07T11:10:10;101957.09;;;10.47;56.48
11648;BME280;5880;52.342;9.662;2024-03-07T11:12:39;101963.88;;;10.58;56.52
11648;BME280;5880;52.342;9.662;2024-03-07T11:15:09;101950.91;;;10.67;56.91
11648;BME280;5880;52.342;9.662;2024-03-07T11:17:45;101955.63;;;10.80;56.72
11648;BME280;5880;52.342;9.662;2024-03-07T11:20:20;101953.16;;;10.91;56.89
11648;BME280;5880;52.342;9.662;2024-03-07T11:22:46;101951.97;;;11.01;56.67
11648;BME280;5880;52.342;9.662;2024-03-07T11:25:12;101940.19;;;11.07;56.42
11648;BME280;5880;52.342;9.662;2024-03-07T11:27:38;101940.41;;;11.12;56.41
11648;BME280;5880;52.342;9.662;2024-03-07T11:30:09;101938.78;;;11.24;56.60
11648;BME280;5880;52.342;9.662;2024-03-07T11:32:38;101932.28;;;11.32;56.75
11648;BME280;5880;52.342;9.662;2024-03-07T11:35:05;101941.56;;;11.37;56.17
11648;BME280;5880;52.342;9.662;2024-03-07T11:37:48;101929.78;;;11.44;56.06
11648;BME280;5880;52.342;9.662;2024-03-07T11:43:01;101921.16;;;11.47;55.58
11648;BME280;5880;52.342;9.662;2024-03-07T11:45:31;101919.69;;;11.51;55.76
11648;BME280;5880;52.342;9.662;2024-03-07T11:48:05;101920.75;;;11.56;55.77
11648;BME280;5880;52.342;9.662;2024-03-07T11:50:39;101913.63;;;11.62;55.84
11648;BME280;5880;52.342;9.662;2024-03-07T11:53:08;101913.84;;;11.67;55.65
11648;BME280;5880;52.342;9.662;2024-03-07T11:55:39;101914.25;;;11.77;55.97
11648;BME280;5880;52.342;9.662;2024-03-07T11:58:17;101909.63;;;11.84;55.70
11648;BME280;5880;52.342;9.662;2024-03-07T12:00:44;101911.56;;;11.91;55.70
11648;BME280;5880;52.342;9.662;2024-03-07T12:03:12;101910.94;;;11.95;55.79
11648;BME280;5880;52.342;9.662;2024-03-07T12:05:40;101900.81;;;12.02;55.56
11648;BME280;5880;52.342;9.662;2024-03-07T12:08:07;101900.38;;;12.06;55.39
11648;BME280;5880;52.342;9.662;2024-03-07T12:10:39;101891.56;;;12.03;55.27
11648;BME280;5880;52.342;9.662;2024-03-07T12:13:06;101894.06;;;12.05;54.86
11648;BME280;5880;52.342;9.662;2024-03-07T12:15:33;101886.09;;;12.03;54.83
11648;BME280;5880;52.342;9.662;2024-03-07T12:18:02;101887.97;;;12.03;54.69
11648;BME280;5880;52.342;9.662;2024-03-07T12:20:28;101893.66;;;12.01;54.34
11648;BME280;5880;52.342;9.662;2024-03-07T12:23:00;101892.19;;;11.99;54.08
11648;BME280;5880;52.342;9.662;2024-03-07T12:25:29;101886.28;;;11.95;53.36
11648;BME280;5880;52.342;9.662;2024-03-07T12:28:06;101886.28;;;11.89;52.19
11648;BME280;5880;52.342;9.662;2024-03-07T12:30:55;101887.94;;;11.83;52.05
11648;BME280;5880;52.342;9.662;2024-03-07T12:33:23;101883.09;;;11.78;52.16
11648;BME280;5880;52.342;9.662;2024-03-07T12:35:53;101875.91;;;11.77;52.59
11648;BME280;5880;52.342;9.662;2024-03-07T12:38:25;101875.06;;;11.77;52.52
11648;BME280;5880;52.342;9.662;2024-03-07T12:41:04;101869.41;;;11.78;52.48
11648;BME280;5880;52.342;9.662;2024-03-07T12:43:34;101872.78;;;11.80;52.39
11648;BME280;5880;52.342;9.662;2024-03-07T12:46:00;101875.50;;;11.80;52.09
11648;BME280;5880;52.342;9.662;2024-03-07T12:48:26;101865.19;;;11.82;51.67
11648;BME280;5880;52.342;9.662;2024-03-07T12:50:52;101869.41;;;11.85;52.12
11648;BME280;5880;52.342;9.662;2024-03-07T12:53:24;101863.53;;;11.88;51.66
11648;BME280;5880;52.342;9.662;2024-03-07T12:55:51;101863.69;;;11.87;51.57
11648;BME280;5880;52.342;9.662;2024-03-07T12:58:20;101862.03;;;11.86;51.12
11648;BME280;5880;52.342;9.662;2024-03-07T13:00:57;101856.09;;;11.82;50.96
11648;BME280;5880;52.342;9.662;2024-03-07T13:03:26;101858.00;;;11.81;51.33
11648;BME280;5880;52.342;9.662;2024-03-07T13:05:59;101856.97;;;11.82;51.16
11648;BME280;5880;52.342;9.662;2024-03-07T13:08:28;101855.50;;;11.80;50.94
11648;BME280;5880;52.342;9.662;2024-03-07T13:10:56;101860.09;;;11.79;51.01
11648;BME280;5880;52.342;9.662;2024-03-07T13:13:24;101849.38;;;11.78;50.89
11648;BME280;5880;52.342;9.662;2024-03-07T13:15:50;101848.97;;;11.81;51.24
11648;BME280;5880;52.342;9.662;2024-03-07T13:18:20;101844.94;;;11.83;51.17
11648;BME280;5880;52.342;9.662;2024-03-07T13:20:45;101844.75;;;11.85;51.10